createdAt,value
2019-04-01T03:17:09.511Z,74.87
2019-04-01T03:19:39.092Z,74.60
2019-04-01T03:22:08.083Z,71.80
2019-04-01T03:24:37.143Z,71.00
2019-04-01T03:27:06.427Z,72.87
2019-04-01T03:29:35.380Z,77.10
2019-04-01T03:32:04.530Z,65.00
2019-04-01T03:34:33.623Z,78.77
2019-04-01T03:37:02.768Z,77.47
2019-04-01T03:39:31.727Z,80.67
2019-04-01T03:42:00.645Z,78.10
2019-04-01T03:44:29.787Z,75.57
2019-04-01T03:46:59.131Z,84.93
2019-04-01T03:49:28.134Z,80.40
2019-04-01T03:51:57.127Z,81.03
2019-04-01T03:54:26.248Z,83.80
2019-04-01T03:56:55.349Z,85.90
2019-04-01T03:59:24.447Z,84.73
2019-04-01T04:01:53.698Z,86.53
2019-04-01T04:04:22.832Z,89.40
2019-04-01T04:06:51.975Z,78.40
2019-04-01T04:09:21.029Z,88.90
2019-04-01T04:11:50.167Z,80.90
2019-04-01T04:14:19.161Z,83.20
2019-04-01T04:16:48.151Z,94.57
2019-04-01T04:19:17.243Z,84.17
2019-04-01T04:21:46.323Z,88.80
2019-04-01T04:24:15.417Z,100.13
2019-04-01T04:26:44.484Z,87.70
2019-04-01T04:29:13.530Z,94.20
2019-04-01T04:31:42.542Z,95.10
2019-04-01T04:34:11.647Z,93.17
2019-04-01T04:36:40.655Z,97.33
2019-04-01T04:39:09.739Z,91.30
2019-04-01T04:41:38.856Z,87.73
2019-04-01T04:44:07.884Z,90.17
2019-04-01T04:49:16.058Z,95.10
2019-04-01T04:51:45.116Z,94.60
2019-04-01T04:54:14.135Z,98.33
2019-04-01T04:56:43.203Z,95.37
2019-04-01T04:59:12.491Z,83.67
2019-04-01T05:01:41.910Z,92.27
2019-04-01T05:04:11.111Z,87.63
2019-04-01T05:06:40.538Z,107.73
2019-04-01T05:09:09.602Z,93.93
2019-04-01T05:11:38.593Z,103.60
2019-04-01T05:14:29.814Z,93.10
2019-04-01T05:16:58.788Z,101.37
2019-04-01T05:19:27.871Z,93.17
2019-04-01T05:21:58.035Z,102.40
2019-04-01T05:24:28.158Z,98.30
2019-04-01T05:26:58.167Z,94.67
2019-04-01T05:29:29.608Z,98.07
2019-04-01T05:31:59.634Z,91.03
2019-04-01T05:34:30.004Z,96.10
2019-04-01T05:36:59.119Z,89.97
2019-04-01T05:39:28.567Z,90.77
2019-04-01T05:41:57.637Z,86.87
2019-04-01T05:44:27.348Z,90.63
2019-04-01T05:46:56.330Z,80.33
2019-04-01T05:49:25.438Z,87.83
2019-04-01T05:51:54.521Z,84.47
2019-04-01T05:54:23.738Z,90.13
2019-04-01T05:56:53.168Z,98.27
2019-04-01T05:59:22.255Z,83.57
2019-04-01T06:01:51.443Z,87.40
2019-04-01T06:04:20.645Z,95.27
2019-04-01T06:06:49.750Z,81.70
2019-04-01T06:09:18.897Z,87.10
2019-04-01T06:11:48.057Z,73.77
2019-04-01T06:14:17.239Z,75.10
2019-04-01T06:16:46.262Z,73.70
2019-04-01T06:19:15.493Z,74.53
2019-04-01T06:21:44.678Z,74.07
2019-04-01T06:24:13.688Z,86.23
2019-04-01T06:26:42.766Z,69.40
2019-04-01T06:29:11.774Z,73.00
2019-04-01T06:31:40.931Z,67.47
2019-04-01T06:34:10.013Z,70.27
2019-04-01T06:36:39.131Z,63.43
2019-04-01T06:39:08.231Z,60.83
2019-04-01T06:41:37.310Z,61.23
2019-04-01T06:44:06.370Z,54.77
2019-04-01T06:46:35.552Z,62.03
2019-04-01T06:49:04.946Z,62.17
2019-04-01T06:51:34.032Z,57.77
2019-04-01T06:54:03.146Z,60.50
2019-04-01T06:56:32.266Z,55.97
2019-04-01T06:59:01.323Z,63.63
2019-04-01T07:01:30.311Z,61.03
2019-04-01T07:03:59.762Z,59.05
2019-04-01T07:06:28.860Z,53.80
2019-04-01T07:08:57.936Z,48.43
2019-04-01T07:11:27.021Z,55.20
2019-04-01T07:13:56.239Z,57.47
2019-04-01T07:16:25.650Z,54.80
2019-04-01T07:18:54.822Z,51.70
2019-04-01T07:21:23.912Z,51.50
2019-04-01T07:23:53.079Z,52.50
2019-04-01T07:26:22.159Z,53.23
2019-04-01T07:28:51.099Z,52.10
2019-04-01T07:31:20.194Z,51.50
2019-04-01T07:33:49.301Z,55.20
2019-04-01T07:36:18.409Z,51.07
2019-04-01T07:38:47.510Z,51.30
2019-04-01T07:41:16.682Z,49.67
2019-04-01T07:43:45.877Z,50.17
2019-04-01T07:46:15.055Z,44.53
2019-04-01T07:48:44.345Z,47.37
2019-04-01T07:51:13.526Z,48.80
2019-04-01T07:53:43.115Z,44.57
2019-04-01T07:56:12.270Z,50.30
2019-04-01T07:58:41.346Z,49.63
2019-04-01T08:01:10.451Z,58.50
2019-04-01T08:03:41.924Z,49.07
2019-04-01T08:06:10.336Z,47.33
2019-04-01T08:08:39.328Z,50.37
2019-04-01T08:11:08.459Z,49.03
2019-04-01T08:13:37.620Z,48.83
2019-04-01T08:16:06.611Z,49.97
2019-04-01T08:18:35.696Z,42.33
2019-04-01T08:21:04.749Z,44.50
2019-04-01T08:23:33.855Z,45.33
2019-04-01T08:26:03.092Z,50.53
2019-04-01T08:28:32.178Z,42.37
2019-04-01T08:31:01.304Z,45.73
2019-04-01T08:33:30.382Z,43.57
2019-04-01T08:35:59.562Z,42.30
2019-04-01T08:38:28.491Z,42.87
2019-04-01T08:40:57.583Z,44.67
2019-04-01T08:43:26.688Z,46.23
2019-04-01T08:45:55.790Z,43.80
2019-04-01T08:48:24.980Z,42.77
2019-04-01T08:50:54.555Z,38.33
2019-04-01T08:53:23.934Z,39.87
2019-04-01T08:56:00.615Z,40.80
2019-04-01T08:58:23.871Z,40.00
2019-04-01T09:00:53.392Z,39.80
2019-04-01T09:03:22.413Z,40.70
2019-04-01T09:05:51.497Z,39.53
2019-04-01T09:08:21.203Z,36.90
2019-04-01T09:10:50.299Z,38.60
2019-04-01T09:13:19.639Z,44.87
2019-04-01T09:15:48.756Z,37.97
2019-04-01T09:18:17.904Z,36.63
2019-04-01T09:20:46.896Z,40.47
2019-04-01T09:23:16.003Z,45.27
2019-04-01T09:25:45.175Z,46.30
2019-04-01T09:28:14.230Z,45.40
2019-04-01T09:30:43.454Z,44.43
2019-04-01T09:33:12.572Z,38.53
2019-04-01T09:35:41.613Z,39.63
2019-04-01T09:38:10.822Z,38.40
2019-04-01T09:40:39.905Z,41.97
2019-04-01T09:43:08.933Z,42.27
2019-04-01T09:45:37.922Z,48.47
2019-04-01T09:48:07.011Z,39.97
2019-04-01T09:50:36.114Z,39.87
2019-04-01T09:53:05.272Z,43.17
2019-04-01T09:55:34.263Z,40.37
2019-04-01T09:58:03.419Z,37.10
2019-04-01T10:00:32.514Z,42.20
2019-04-01T10:03:01.510Z,39.47
2019-04-01T10:05:30.604Z,36.40
2019-04-01T10:07:59.708Z,33.30
2019-04-01T10:10:28.873Z,36.50
2019-04-01T10:12:58.009Z,38.17
2019-04-01T10:15:27.329Z,35.50
2019-04-01T10:17:56.337Z,39.17
2019-04-01T10:20:25.410Z,39.30
2019-04-01T10:22:54.403Z,34.23
2019-04-01T10:25:23.465Z,34.87
2019-04-01T10:27:52.538Z,38.13
2019-04-01T10:30:22.848Z,36.53
2019-04-01T10:32:52.061Z,39.23
2019-04-01T10:35:21.566Z,38.33
2019-04-01T10:37:50.647Z,38.60
2019-04-01T10:40:19.736Z,38.70
2019-04-01T10:42:48.747Z,31.07
2019-04-01T10:45:18.123Z,40.60
2019-04-01T10:47:47.204Z,41.47
2019-04-01T10:50:16.758Z,36.00
2019-04-01T10:52:45.860Z,35.43
2019-04-01T10:55:15.100Z,34.53
2019-04-01T10:57:44.199Z,34.43
2019-04-01T11:00:14.375Z,32.97
2019-04-01T11:02:43.591Z,36.03
2019-04-01T11:05:12.894Z,38.47
2019-04-01T11:07:42.069Z,32.77
2019-04-01T11:10:11.958Z,37.27
2019-04-01T11:12:41.106Z,34.50
2019-04-01T11:15:10.572Z,31.83
2019-04-01T11:17:39.633Z,33.80
2019-04-01T11:20:09.290Z,33.53
2019-04-01T11:22:38.505Z,29.80
2019-04-01T11:25:07.975Z,31.63
2019-04-01T11:27:37.079Z,32.43
2019-04-01T11:30:08.019Z,30.47
2019-04-01T11:32:37.598Z,35.10
2019-04-01T11:35:06.881Z,34.37
2019-04-01T11:37:36.376Z,43.03
2019-04-01T11:40:10.203Z,35.30
2019-04-01T11:42:40.475Z,37.93
2019-04-01T11:45:08.554Z,32.70
2019-04-01T11:47:37.753Z,32.73
2019-04-01T11:50:07.307Z,33.23
2019-04-01T11:52:37.984Z,29.10
2019-04-01T11:55:08.930Z,34.57
2019-04-01T11:57:38.632Z,32.43
2019-04-01T12:00:13.270Z,33.70
2019-04-01T12:02:42.678Z,34.43
2019-04-01T12:05:11.844Z,31.27
2019-04-01T12:07:41.022Z,30.03
2019-04-01T12:10:11.032Z,34.40
2019-04-01T12:12:40.148Z,32.83
2019-04-01T12:15:11.981Z,34.00
2019-04-01T12:17:41.755Z,31.90
2019-04-01T12:20:10.879Z,36.03
2019-04-01T12:22:41.244Z,32.43
2019-04-01T12:25:10.928Z,28.97
2019-04-01T12:27:40.011Z,31.47
2019-04-01T12:30:09.173Z,31.77
2019-04-01T12:32:38.267Z,31.30
2019-04-01T12:35:07.556Z,31.70
2019-04-01T12:37:36.678Z,35.13
2019-04-01T12:40:06.190Z,31.17
2019-04-01T12:42:35.257Z,31.50
2019-04-01T12:45:05.327Z,31.50
2019-04-01T12:47:34.409Z,35.43
2019-04-01T12:50:03.587Z,30.50
2019-04-01T12:52:32.715Z,32.47
2019-04-01T12:55:01.709Z,32.50
2019-04-01T12:57:30.727Z,29.47
2019-04-01T12:59:59.639Z,35.73
2019-04-01T13:02:28.657Z,33.40
2019-04-01T13:04:57.611Z,32.07
2019-04-01T13:07:26.649Z,28.30
2019-04-01T13:09:55.605Z,31.77
2019-04-01T13:12:27.261Z,31.87
2019-04-01T13:14:56.327Z,30.70
2019-04-01T13:17:25.483Z,32.33
2019-04-01T13:19:54.448Z,32.00
2019-04-01T13:22:23.447Z,30.50
2019-04-01T13:24:52.519Z,28.77
2019-04-01T13:27:21.527Z,26.90
2019-04-01T13:29:50.524Z,21.90
2019-04-01T13:32:20.276Z,31.63
2019-04-01T13:34:49.780Z,24.87
2019-04-01T13:37:18.862Z,29.67
2019-04-01T13:39:47.986Z,24.97
2019-04-01T13:42:16.934Z,26.80
2019-04-01T13:44:45.922Z,31.23
2019-04-01T13:47:15.023Z,25.30
2019-04-01T13:49:44.067Z,25.83
2019-04-01T13:52:13.127Z,27.80
2019-04-01T13:54:42.499Z,28.97
2019-04-01T13:57:13.018Z,24.90
2019-04-01T13:59:49.071Z,32.10
2019-04-01T14:02:13.058Z,38.83
2019-04-01T14:04:42.103Z,27.37
2019-04-01T14:07:11.138Z,31.00
2019-04-01T14:09:40.393Z,29.37
2019-04-01T14:12:09.861Z,27.00
2019-04-01T14:14:38.879Z,25.33
2019-04-01T14:17:08.340Z,25.93
2019-04-01T14:19:37.314Z,25.60
2019-04-01T14:22:06.755Z,25.90
2019-04-01T14:24:36.561Z,26.03
2019-04-01T14:27:05.699Z,27.60
2019-04-01T14:29:36.494Z,23.90
2019-04-01T14:32:05.627Z,21.60
2019-04-01T14:34:35.491Z,22.00
2019-04-01T14:37:05.003Z,23.10
2019-04-01T14:39:34.912Z,23.53
2019-04-01T14:42:04.158Z,22.07
2019-04-01T14:44:33.231Z,20.10
2019-04-01T14:47:03.678Z,23.73
2019-04-01T14:49:33.354Z,23.50
2019-04-01T14:52:02.496Z,29.20
2019-04-01T14:54:31.536Z,22.60
2019-04-01T14:57:00.814Z,25.40
2019-04-01T14:59:29.760Z,25.30
2019-04-01T15:01:59.330Z,26.17
2019-04-01T15:04:29.471Z,23.43
2019-04-01T15:06:58.595Z,23.47
2019-04-01T15:09:27.768Z,25.43
2019-04-01T15:11:56.884Z,24.67
2019-04-01T15:14:25.908Z,25.17
2019-04-01T15:16:54.902Z,23.70
2019-04-01T15:19:23.962Z,26.97
2019-04-01T15:21:53.028Z,26.60
2019-04-01T15:24:22.052Z,20.40
2019-04-01T15:26:50.986Z,21.03
2019-04-01T15:29:20.034Z,19.47
2019-04-01T15:31:49.107Z,23.20
2019-04-01T15:34:19.369Z,24.23
2019-04-01T15:36:48.699Z,22.53
2019-04-01T15:39:18.025Z,22.43
2019-04-01T15:41:47.170Z,19.93
2019-04-01T15:44:16.098Z,32.73
2019-04-01T15:46:45.184Z,26.37
2019-04-01T15:49:14.294Z,20.53
2019-04-01T15:51:43.422Z,30.93
2019-04-01T15:54:12.515Z,22.30
2019-04-01T15:56:42.497Z,21.93
2019-04-01T15:59:11.516Z,25.50
2019-04-01T16:01:40.531Z,22.40
2019-04-01T16:04:09.615Z,28.03
2019-04-01T16:06:38.917Z,18.30
2019-04-01T16:09:08.205Z,23.27
2019-04-01T16:11:37.308Z,23.40
2019-04-01T16:14:06.664Z,24.03
2019-04-01T16:16:36.266Z,24.30
2019-04-01T16:19:05.833Z,22.40
2019-04-01T16:21:35.205Z,27.40
2019-04-01T16:24:04.399Z,27.80
2019-04-01T16:26:33.514Z,26.00
2019-04-01T16:29:02.784Z,27.27
2019-04-01T16:31:31.950Z,25.47
2019-04-01T16:34:01.039Z,21.80
2019-04-01T16:36:30.054Z,27.80
2019-04-01T16:38:59.396Z,21.63
2019-04-01T16:41:28.546Z,23.33
2019-04-01T16:43:57.693Z,25.63
2019-04-01T16:46:26.749Z,22.47
2019-04-01T16:48:55.748Z,24.20
2019-04-01T16:51:24.831Z,21.47
2019-04-01T16:53:56.056Z,24.33
2019-04-01T16:56:24.668Z,23.60
2019-04-01T16:58:53.834Z,23.17
2019-04-01T17:01:23.323Z,23.07
2019-04-01T17:03:52.756Z,25.13
2019-04-01T17:06:21.944Z,25.37
2019-04-01T17:08:50.973Z,23.30
2019-04-01T17:11:20.239Z,24.50
2019-04-01T17:13:49.377Z,20.57
2019-04-01T17:16:18.490Z,23.07
2019-04-01T17:18:47.546Z,19.90
2019-04-01T17:21:16.546Z,23.80
2019-04-01T17:23:45.634Z,25.30
2019-04-01T17:26:14.790Z,26.37
2019-04-01T17:28:43.826Z,22.07
2019-04-01T17:31:12.819Z,25.50
2019-04-01T17:33:41.755Z,23.90
2019-04-01T17:36:11.190Z,24.20
2019-04-01T17:38:40.499Z,21.60
2019-04-01T17:41:09.706Z,23.77
2019-04-01T17:43:38.834Z,22.80
2019-04-01T17:46:08.224Z,21.93
2019-04-01T17:48:38.046Z,23.17
2019-04-01T17:51:07.076Z,18.00
2019-04-01T17:53:36.126Z,22.83
2019-04-01T17:56:07.213Z,22.57
2019-04-01T17:58:36.230Z,26.20
2019-04-01T18:01:05.437Z,24.63
2019-04-01T18:03:34.544Z,20.00
2019-04-01T18:06:03.728Z,26.60
2019-04-01T18:08:34.063Z,20.00
2019-04-01T18:11:03.335Z,21.50
2019-04-01T18:13:32.514Z,18.90
2019-04-01T18:16:01.503Z,26.03
2019-04-01T18:18:33.945Z,23.13
2019-04-01T18:21:03.293Z,24.00
2019-04-01T18:23:33.001Z,35.43
2019-04-01T18:26:02.020Z,25.93
2019-04-01T18:28:31.280Z,23.23
2019-04-01T18:31:01.247Z,24.37
2019-04-01T18:33:30.785Z,26.40
2019-04-01T18:36:00.237Z,19.30
2019-04-01T18:38:29.765Z,20.80
2019-04-01T18:40:59.119Z,20.00
2019-04-01T18:43:28.752Z,25.23
2019-04-01T18:45:57.966Z,21.33
2019-04-01T18:48:27.066Z,27.40
2019-04-01T18:50:56.870Z,21.17
2019-04-01T18:53:28.547Z,34.30
2019-04-01T18:55:56.686Z,22.17
2019-04-01T18:58:25.624Z,23.50
2019-04-01T19:00:54.538Z,20.70
2019-04-01T19:03:24.207Z,20.47
2019-04-01T19:05:53.757Z,20.07
2019-04-01T19:08:22.834Z,19.50
2019-04-01T19:11:01.709Z,24.40
2019-04-01T19:13:22.913Z,19.93
2019-04-01T19:15:53.274Z,23.23
2019-04-01T19:18:22.836Z,17.33
2019-04-01T19:20:56.856Z,22.53
2019-04-01T19:23:22.730Z,25.93
2019-04-01T19:25:51.772Z,21.50
2019-04-01T19:28:20.978Z,23.30
2019-04-01T19:30:50.046Z,22.20
2019-04-01T19:33:18.979Z,19.07
2019-04-01T19:35:47.912Z,21.90
2019-04-01T19:38:17.059Z,21.63
2019-04-01T19:40:46.064Z,17.20
2019-04-01T19:43:16.240Z,20.00
2019-04-01T19:45:45.423Z,19.57
2019-04-01T19:48:14.431Z,21.27
2019-04-01T19:50:43.456Z,20.03
2019-04-01T19:53:12.466Z,19.10
2019-04-01T19:55:43.863Z,23.13
2019-04-01T19:58:12.211Z,24.47
2019-04-01T20:00:41.599Z,21.50
2019-04-01T20:03:10.532Z,18.33
2019-04-01T20:05:39.531Z,16.23
2019-04-01T20:08:08.552Z,23.37
2019-04-01T20:10:37.590Z,18.93
2019-04-01T20:13:06.686Z,20.50
2019-04-01T20:15:35.840Z,19.00
2019-04-01T20:18:05.123Z,20.93
2019-04-01T20:20:34.218Z,21.10
2019-04-01T20:23:03.286Z,21.30
2019-04-01T20:25:32.403Z,24.97
2019-04-01T20:28:01.451Z,22.17
2019-04-01T20:30:30.535Z,18.50
2019-04-01T20:32:59.555Z,40.03
2019-04-01T20:35:28.956Z,26.70
2019-04-01T20:37:58.315Z,17.27
2019-04-01T20:40:27.670Z,22.73
2019-04-01T20:42:59.295Z,18.50
2019-04-01T20:45:28.417Z,19.53
2019-04-01T20:47:57.367Z,23.80
2019-04-01T20:50:27.225Z,23.37
2019-04-01T20:52:57.325Z,23.97
2019-04-01T20:55:26.347Z,24.40
2019-04-01T20:57:55.398Z,22.23
2019-04-01T21:02:51.909Z,31.40
2019-04-01T21:05:21.028Z,21.70
2019-04-01T21:07:50.094Z,20.63
2019-04-01T21:10:19.203Z,18.37
2019-04-01T21:12:48.432Z,17.67
2019-04-01T21:15:18.723Z,25.27
2019-04-01T21:17:47.732Z,23.00
2019-04-01T21:20:16.860Z,22.60
2019-04-01T21:22:45.799Z,24.57
2019-04-01T21:25:15.307Z,26.47
2019-04-01T21:27:44.313Z,23.63
2019-04-01T21:30:14.462Z,23.80
2019-04-01T21:32:45.127Z,23.33
2019-04-01T21:35:14.340Z,25.67
2019-04-01T21:37:43.411Z,18.67
2019-04-01T21:40:13.023Z,23.93
2019-04-01T21:42:43.257Z,29.07
2019-04-01T21:45:12.850Z,22.13
2019-04-01T21:47:41.863Z,24.70
2019-04-01T21:50:11.151Z,30.00
2019-04-01T21:52:40.147Z,21.10
2019-04-01T21:55:09.223Z,24.57
2019-04-01T21:57:38.236Z,22.10
2019-04-01T22:00:08.891Z,28.07
2019-04-01T22:02:38.190Z,30.73
2019-04-01T22:05:08.200Z,27.73
2019-04-01T22:07:38.146Z,25.20
2019-04-01T22:10:07.602Z,21.40
2019-04-01T22:12:37.091Z,21.90
2019-04-01T22:15:06.806Z,21.67
2019-04-01T22:17:35.901Z,22.67
2019-04-01T22:20:07.370Z,22.10
2019-04-01T22:22:37.338Z,25.57
2019-04-01T22:25:06.834Z,23.83
2019-04-01T22:27:35.894Z,22.23
